»·PEaware :: SWA1592 KLAS-KSLC

SWA1592 :: KLAS-KSLC

FLIGHT INFORMATION

Flight Status: Arrived
Operator:
Southwest Airlines
More flights by this operator :: More flights under this callsign
Pilot: John C. (18682)
Aircraft: BOEING 737-800
(B738)
More flights by this aircraft type
Origin: KLAS McCarran Intl
United States
Destination: KSLC Salt Lake City Intl
United States
More flights between these airports :: More routes between these airports
Route: STAAV8 MLF DELTA5
File this flight plan on PilotEdge
Remarks:
Altitude:
(Current/Filed)
33,000ft
Speed:
(Current/Filed)
446kts
Departed: 17-Mar-20 02:13 PM
Arrived: 17-Mar-20 03:10 PM
Distance/Time
Traveled:
319nm/0:56
Distance/Time
To Go:
Arrived

Flight Plot

Page will automatically refresh every two minutes.

Flight plan parsing failed; only flown route is shown


Map Options




Map Legend


Flown Route
Filed Route
Departure Airport
Arrival Airport
Navaid (VOR, NDB)
Fix

Horizontal Profiles

Position Reports

Time Latitude Longitude Heading Altitude Ground
Speed
17-Mar-20 13:52 36.079889 -115.147039 60 2099ft 0kts
17-Mar-20 13:53 36.079889 -115.147039 60 2099ft 0kts
17-Mar-20 13:54 36.079889 -115.147039 60 2099ft 0kts
17-Mar-20 13:55 36.079889 -115.147039 60 2099ft 0kts
17-Mar-20 13:56 36.079889 -115.147039 60 2099ft 0kts
17-Mar-20 13:57 36.079889 -115.147039 60 2099ft 0kts
17-Mar-20 13:58 36.079889 -115.147039 60 2099ft 0kts
17-Mar-20 13:59 36.079889 -115.147039 60 2099ft 0kts
17-Mar-20 14:00 36.079889 -115.147039 60 2099ft 0kts
17-Mar-20 14:01 36.079889 -115.147039 60 2099ft 0kts
17-Mar-20 14:02 36.079889 -115.147039 60 2099ft 0kts
17-Mar-20 14:03 36.079683 -115.147611 105 2102ft 2kts
17-Mar-20 14:04 36.079865 -115.147837 156 2102ft 0kts
17-Mar-20 14:05 36.079865 -115.147837 156 2102ft 0kts
17-Mar-20 14:06 36.078940 -115.147302 154 2104ft 3kts
17-Mar-20 14:07 36.078263 -115.142931 90 2090ft 20kts
17-Mar-20 14:08 36.078259 -115.134804 90 2067ft 26kts
17-Mar-20 14:09 36.078268 -115.126597 89 2045ft 25kts
17-Mar-20 14:10 36.077435 -115.121462 143 2039ft 0kts
17-Mar-20 14:11 36.076434 -115.122140 270 2041ft 6kts
17-Mar-20 14:12 36.076687 -115.155075 266 2407ft 160kts
17-Mar-20 14:13 36.076071 -115.214242 265 3914ft 205kts
17-Mar-20 14:14 36.095864 -115.285303 324 6531ft 255kts
17-Mar-20 14:15 36.163747 -115.275541 50 9197ft 281kts
17-Mar-20 14:17 36.195786 -115.159810 90 10959ft 343kts
17-Mar-20 14:17 36.197638 -115.058607 93 12997ft 360kts
17-Mar-20 14:18 36.199012 -114.932266 94 15597ft 376kts
17-Mar-20 14:19 36.211100 -114.800519 70 17957ft 408kts
17-Mar-20 14:20 36.292242 -114.695762 40 20072ft 439kts
17-Mar-20 14:21 36.390733 -114.601075 39 22004ft 455kts
17-Mar-20 14:22 36.493139 -114.503851 39 23760ft 470kts
17-Mar-20 14:23 36.602892 -114.410949 32 25361ft 485kts
17-Mar-20 14:24 36.718669 -114.320798 32 26826ft 498kts
17-Mar-20 14:25 36.837845 -114.228279 32 28160ft 510kts
17-Mar-20 14:26 36.959616 -114.133438 32 29398ft 521kts
17-Mar-20 14:27 37.083582 -114.036525 32 30689ft 527kts
17-Mar-20 14:28 37.208126 -113.938777 32 32067ft 528kts
17-Mar-20 14:29 37.332467 -113.840804 32 32938ft 533kts
17-Mar-20 14:30 37.457817 -113.741642 32 32945ft 529kts
17-Mar-20 14:31 37.582696 -113.642454 32 32937ft 530kts
17-Mar-20 14:32 37.707672 -113.542792 32 32918ft 531kts
17-Mar-20 14:33 37.831249 -113.443846 32 32918ft 530kts
17-Mar-20 14:34 37.955644 -113.343847 32 32919ft 530kts
17-Mar-20 14:35 38.080080 -113.243611 32 32913ft 531kts
17-Mar-20 14:36 38.204533 -113.142802 32 32871ft 530kts
17-Mar-20 14:37 38.328456 -113.041831 32 32868ft 530kts
17-Mar-20 14:38 38.460618 -112.961234 21 32871ft 525kts
17-Mar-20 14:39 38.594374 -112.888892 21 32874ft 521kts
17-Mar-20 14:40 38.727368 -112.817464 21 32876ft 517kts
17-Mar-20 14:41 38.859664 -112.746281 21 32877ft 516kts
17-Mar-20 14:42 38.990548 -112.675290 21 32874ft 512kts
17-Mar-20 14:43 39.110756 -112.610075 21 32867ft 515kts
17-Mar-20 14:44 39.200670 -112.561189 21 31429ft 528kts
17-Mar-20 14:45 39.336486 -112.497099 14 28354ft 513kts
17-Mar-20 14:46 39.469723 -112.450757 13 26202ft 482kts
17-Mar-20 14:47 39.595653 -112.408384 13 24190ft 456kts
17-Mar-20 14:48 39.715001 -112.368452 14 22326ft 433kts
17-Mar-20 14:49 39.828310 -112.330558 14 20498ft 414kts
17-Mar-20 14:50 39.940182 -112.293039 15 18625ft 416kts
17-Mar-20 14:51 40.049423 -112.256157 15 17064ft 396kts
17-Mar-20 14:52 40.157409 -112.219394 15 16469ft 397kts
17-Mar-20 14:53 40.261725 -112.183959 15 14600ft 377kts
17-Mar-20 14:54 40.361811 -112.149827 15 14034ft 381kts
17-Mar-20 14:55 40.463435 -112.115137 15 13166ft 370kts
17-Mar-20 14:56 40.563442 -112.083523 6 12050ft 360kts
17-Mar-20 14:57 40.663425 -112.081324 355 11033ft 360kts
17-Mar-20 14:58 40.764016 -112.093324 354 11018ft 355kts
17-Mar-20 14:59 40.853202 -112.103948 354 11042ft 292kts
17-Mar-20 15:00 40.928270 -112.113265 354 10244ft 264kts
17-Mar-20 15:01 41.000710 -112.121984 354 9051ft 257kts
17-Mar-20 15:02 41.061676 -112.093106 74 8103ft 248kts
17-Mar-20 15:03 41.033587 -112.022755 141 7008ft 227kts
17-Mar-20 15:04 40.974404 -111.999183 171 7027ft 222kts
17-Mar-20 15:05 40.917924 -111.989732 177 6517ft 188kts
17-Mar-20 15:07 40.870205 -111.984180 175 5602ft 155kts
17-Mar-20 15:08 40.827188 -111.979097 175 4685ft 144kts
17-Mar-20 15:09 40.790610 -111.974997 174 4238ft 67kts
17-Mar-20 15:10 40.786411 -111.975290 246 4237ft 0kts
17-Mar-20 15:11 40.786335 -111.975758 262 4238ft 0kts
17-Mar-20 15:12 40.786335 -111.975758 262 4238ft 0kts
17-Mar-20 15:13 40.786245 -111.976803 265 4238ft 10kts
17-Mar-20 15:14 40.786459 -111.978634 311 4238ft 0kts
17-Mar-20 15:15 40.786458 -111.978634 311 4238ft 0kts
17-Mar-20 15:16 40.786458 -111.978634 311 4238ft 0kts
17-Mar-20 15:17 40.786458 -111.978634 311 4238ft 0kts

Navigation Log

Ident Type
Flight plan parsing failed, navigation log unavailable